DUCK FRF 26m, NC - 430

GPS Positions

GPS Time
Latitude
Degrees
Longitude
Degrees
Gap
 
Distance
NM
Speed
Knots
Direction
Degrees
2010 May 18, 23:38 36.25782° -75.59145° 30 min 0.02 0.00
2010 May 18, 23:08 36.25781° -75.59145° 30 min 0.02 0.00
2010 May 18, 22:38 36.25780° -75.59145° 30 min 0.02 0.00
211°
2010 May 18, 22:08 36.25783° -75.59143° 30 min 0.02 0.00
316°
2010 May 18, 21:38 36.25781° -75.59141° 30 min 0.02 0.00
270°
2010 May 18, 21:08 36.25781° -75.59137° 30 min 0.02 0.00
180°
2010 May 18, 20:38 36.25782° -75.59137° 30 min 0.02 0.00
270°
2010 May 18, 20:08 36.25782° -75.59135° 30 min 0.02 0.02
170°
2010 May 18, 19:38 36.25800° -75.59138° 30 min 0.01 0.02
2010 May 18, 19:08 36.25785° -75.59138° 30 min 0.02 0.01
289°
2010 May 18, 18:38 36.25783° -75.59130° 30 min 0.02 0.01
198°
2010 May 18, 18:08 36.25789° -75.59128° 30 min 0.02 0.01
345°
2010 May 18, 17:38 36.25784° -75.59126° 30 min 0.02 0.01
180°
2010 May 18, 17:08 36.25790° -75.59126° 30 min 0.02 0.00
160°
2010 May 18, 16:38 36.25793° -75.59128° 30 min 0.02 0.01
161°
2010 May 18, 16:08 36.25798° -75.59130° 30 min 0.01 0.00
107°
2010 May 18, 15:38 36.25800° -75.59135° 30 min 0.01 0.01
90°
2010 May 18, 15:08 36.25800° -75.59141° 30 min 0.01 0.01
78°
2010 May 18, 14:38 36.25798° -75.59148° 30 min 0.01 0.00
70°
2010 May 18, 14:08 36.25797° -75.59151° 30 min 0.01 0.00
290°
2010 May 18, 13:38 36.25796° -75.59148° 30 min 0.01 0.01
13°
2010 May 18, 13:08 36.25791° -75.59149° 30 min 0.01 0.00
58°
2010 May 18, 12:38 36.25790° -75.59151° 30 min 0.01 0.00
316°
2010 May 18, 12:08 36.25788° -75.59149° 30 min 0.02 0.00
238°
2010 May 18, 11:38 36.25790° -75.59145° 30 min 0.01 0.00
270°
2010 May 18, 11:08 36.25790° -75.59143° 30 min 0.01 0.00
2010 May 18, 10:38 36.25789° -75.59143° 30 min 0.02 0.00
248°
2010 May 18, 10:08 36.25790° -75.59141° 30 min 0.02 0.00
219°
2010 May 18, 09:38 36.25792° -75.59138° 30 min 0.01 0.00
227°
2010 May 18, 09:08 36.25793° -75.59137° 30 min 0.01 0.00
270°
2010 May 18, 08:38 36.25793° -75.59132° 30 min 0.02 0.00
180°
2010 May 18, 08:08 36.25794° -75.59132° 30 min 0.01 0.00
2010 May 18, 07:38 36.25794° -75.59132° 30 min 0.01 0.00
112°
2010 May 18, 07:08 36.25795° -75.59135° 30 min 0.01 0.01
238°
2010 May 18, 06:38 36.25797° -75.59130° 30 min 0.01 0.01
139°
2010 May 18, 06:08 36.25801° -75.59135° 30 min 0.01 0.02
167°
2010 May 18, 05:38 36.25814° -75.59138° 30 min 0.01 0.01
342°
2010 May 18, 05:08 36.25805° -75.59135° 30 min 0.01 0.00
2010 May 18, 04:38 36.25805° -75.59135° 30 min 0.01 0.01
122°
2010 May 18, 04:08 36.25808° -75.59141° 30 min 0.01 0.01
85°
2010 May 18, 03:38 36.25807° -75.59156° 30 min 0.00 0.01
69°
2010 May 18, 03:08 36.25805° -75.59162° 30 min 0.01 0.00
112°
2010 May 18, 02:38 36.25806° -75.59164° 30 min 0.01 0.01
2010 May 18, 02:08 36.25801° -75.59164° 30 min 0.01 0.01
156°
2010 May 18, 01:38 36.25806° -75.59167° 30 min 0.01 0.00
2010 May 18, 01:08 36.25805° -75.59167° 30 min 0.01 0.00
2010 May 18, 00:38 36.25803° -75.59167° 30 min 0.01 0.00
329°
2010 May 18, 00:08 36.25800° -75.59164° 30 min 0.01 0.00
321°
2010 May 17, 23:38 36.25797° -75.59162° 30 min 0.01 0.00
302°
2010 May 17, 23:08 36.25796° -75.59160° 30 min 0.01 0.00
327°
2010 May 17, 22:38 36.25794° -75.59158° 30 min 0.01 0.00
2010 May 17, 22:08 36.25791° -75.59158° 30 min 0.01 0.00
287°
2010 May 17, 21:38 36.25790° -75.59154° 30 min 0.01 0.01
270°
2010 May 17, 21:08 36.25790° -75.59148° 30 min 0.01 0.00
270°
2010 May 17, 20:38 36.25790° -75.59145° 30 min 0.01 0.00
270°
2010 May 17, 20:08 36.25790° -75.59143° 30 min 0.01 0.00
270°
2010 May 17, 19:38 36.25790° -75.59141° 30 min 0.02 0.00
292°
2010 May 17, 19:08 36.25789° -75.59138° 30 min 0.02 0.00
180°
2010 May 17, 18:38 36.25790° -75.59138° 30 min 0.02 0.00
180°
2010 May 17, 18:08 36.25792° -75.59138° 30 min 0.01 0.00
180°
2010 May 17, 17:38 36.25794° -75.59138° 30 min 0.01 0.00
112°
2010 May 17, 17:08 36.25795° -75.59141° 30 min 0.01 0.01
133°
2010 May 17, 16:38 36.25798° -75.59145° 30 min 0.01 0.00
321°
2010 May 17, 16:08 36.25796° -75.59143° 30 min 0.01 0.01
145°
2010 May 17, 15:38 36.25801° -75.59148° 30 min 0.01 0.00
2010 May 17, 15:08 36.25800° -75.59148° 30 min 0.01 0.01
99°
2010 May 17, 14:38 36.25800° -75.59154° 30 min 0.01 0.01
141°
2010 May 17, 14:08 36.25805° -75.59158° 30 min 0.01 0.01
221°
2010 May 17, 13:38 36.25813° -75.59149° 30 min 0.00 0.02
49°
2010 May 17, 13:08 36.25803° -75.59164° 30 min 0.01 0.00
73°
2010 May 17, 12:38 36.25801° -75.59169° 30 min 0.01 0.00
2010 May 17, 12:08 36.25800° -75.59169° 30 min 0.01 0.00
2010 May 17, 11:38 36.25800° -75.59169° 30 min 0.01 0.00
292°
2010 May 17, 11:08 36.25800° -75.59167° 30 min 0.01 0.00
332°
2010 May 17, 10:38 36.25796° -75.59164° 30 min 0.01 0.00
316°
2010 May 17, 10:08 36.25794° -75.59162° 30 min 0.01 0.00
307°
2010 May 17, 09:38 36.25792° -75.59158° 30 min 0.01 0.00
2010 May 17, 09:08 36.25792° -75.59158° 30 min 0.01 0.00
219°
2010 May 17, 08:38 36.25794° -75.59156° 30 min 0.01 0.00
180°
2010 May 17, 08:08 36.25797° -75.59156° 30 min 0.01 0.01
302°
2010 May 17, 07:38 36.25795° -75.59151° 30 min 0.01 0.00
302°
2010 May 17, 07:08 36.25793° -75.59148° 30 min 0.01 0.01
270°
2010 May 17, 06:38 36.25793° -75.59141° 30 min 0.01 0.01
102°
2010 May 17, 06:08 36.25794° -75.59148° 30 min 0.01 0.00
180°
2010 May 17, 05:38 36.25795° -75.59148° 30 min 0.01 0.01
2010 May 17, 05:08 36.25791° -75.59148° 30 min 0.01 0.00
180°
2010 May 17, 04:38 36.25793° -75.59148° 30 min 0.01 0.00
47°
2010 May 17, 04:08 36.25792° -75.59149° 30 min 0.01 0.01
58°
2010 May 17, 03:38 36.25790° -75.59154° 30 min 0.01 0.00
219°
2010 May 17, 03:08 36.25792° -75.59151° 30 min 0.01 0.00
238°
2010 May 17, 02:38 36.25793° -75.59149° 30 min 0.01 0.00
58°
2010 May 17, 02:08 36.25792° -75.59151° 30 min 0.01 0.00
90°
2010 May 17, 01:38 36.25792° -75.59154° 30 min 0.01 0.01
115°
2010 May 17, 01:08 36.25794° -75.59160° 30 min 0.01 0.01
127°
2010 May 17, 00:38 36.25798° -75.59167° 30 min 0.01 0.00
180°
2010 May 17, 00:08 36.25800° -75.59167° 30 min 0.01 0.00
2010 May 16, 23:38 36.25800° -75.59167° 30 min 0.01 0.01
313°
2010 May 16, 23:08 36.25796° -75.59162° 30 min 0.01 0.00
122°
2010 May 16, 22:38 36.25797° -75.59164° 30 min 0.01 0.00
302°
2010 May 16, 22:08 36.25796° -75.59162° 30 min 0.01 0.01
315°
2010 May 16, 21:38 36.25793° -75.59158° 30 min 0.01 0.00
332°
2010 May 16, 21:08 36.25790° -75.59156° 30 min 0.01 0.00
238°
2010 May 16, 20:38 36.25791° -75.59154° 30 min 0.01 0.00
302°
2010 May 16, 20:08 36.25790° -75.59151° 30 min 0.01 0.00
270°
2010 May 16, 19:38 36.25790° -75.59149° 30 min 0.01 0.00
270°
2010 May 16, 19:08 36.25790° -75.59148° 30 min 0.01 0.00
219°
2010 May 16, 18:38 36.25792° -75.59145° 30 min 0.01 0.01
241°
2010 May 16, 18:08 36.25795° -75.59138° 30 min 0.01 0.00
2010 May 16, 17:38 36.25792° -75.59138° 30 min 0.01 0.00
58°
2010 May 16, 17:08 36.25791° -75.59141° 30 min 0.01 0.00
180°
2010 May 16, 16:38 36.25793° -75.59141° 30 min 0.01 0.00
2010 May 16, 16:08 36.25792° -75.59141° 30 min 0.01 0.00
58°
2010 May 16, 15:38 36.25791° -75.59143° 30 min 0.01 0.00
73°
2010 May 16, 15:08 36.25790° -75.59148° 30 min 0.01 0.01
90°
2010 May 16, 14:38 36.25790° -75.59154° 30 min 0.01 0.01
74°
2010 May 16, 14:08 36.25788° -75.59162° 30 min 0.02 0.01
140°
2010 May 16, 13:38 36.25794° -75.59169° 30 min 0.01 0.01
55°
2010 May 16, 13:08 36.25791° -75.59175° 30 min 0.02 0.01
315°
2010 May 16, 12:38 36.25788° -75.59171° 30 min 0.02 0.01
135°
2010 May 16, 12:08 36.25791° -75.59175° 30 min 0.02 0.02
298°
2010 May 16, 11:38 36.25784° -75.59160° 30 min 0.02 0.00
44°
2010 May 16, 11:08 36.25782° -75.59162° 30 min 0.02 0.01
270°
2010 May 16, 10:38 36.25782° -75.59156° 30 min 0.02 0.01
270°
2010 May 16, 10:08 36.25782° -75.59149° 30 min 0.02 0.02
242°
2010 May 16, 09:38 36.25790° -75.59132° 30 min 0.02 0.01
96°
2010 May 16, 09:08 36.25791° -75.59145° 30 min 0.01 0.00
238°
2010 May 16, 08:38 36.25792° -75.59143° 30 min 0.01 0.01
238°
2010 May 16, 08:08 36.25794° -75.59138° 30 min 0.01 0.00
270°
2010 May 16, 07:38 36.25794° -75.59137° 30 min 0.01 0.00
211°
2010 May 16, 07:08 36.25797° -75.59135° 30 min 0.01 0.01
238°
2010 May 16, 06:38 36.25800° -75.59130° 30 min 0.01 0.01
180°
2010 May 16, 06:08 36.25805° -75.59130° 30 min 0.01 0.00
2010 May 16, 05:38 36.25805° -75.59130° 30 min 0.01 0.01
14°
2010 May 16, 05:08 36.25797° -75.59132° 30 min 0.01 0.01
191°
2010 May 16, 04:38 36.25807° -75.59130° 30 min 0.01 0.01
180°
2010 May 16, 04:08 36.25813° -75.59130° 30 min 0.01 0.00
107°
2010 May 16, 03:38 36.25814° -75.59135° 30 min 0.01 0.01
180°
2010 May 16, 03:08 36.25819° -75.59135° 30 min 0.01 0.01
137°
2010 May 16, 02:38 36.25824° -75.59141° 30 min 0.01 0.01
124°
2010 May 16, 02:08 36.25829° -75.59149° 30 min 0.01 0.01
63°
2010 May 16, 01:38 36.25823° -75.59162° 30 min 0.01 0.00
73°
2010 May 16, 01:08 36.25822° -75.59167° 30 min 0.01 0.01
103°
2010 May 16, 00:38 36.25823° -75.59173° 30 min 0.01 0.01
18°
2010 May 16, 00:08 36.25817° -75.59175° 30 min 0.01 0.01
50°
2010 May 15, 23:38 36.25814° -75.59180° 30 min 0.01 0.01
330°
2010 May 15, 23:08 36.25808° -75.59175° 30 min 0.01 0.00
2010 May 15, 22:38 36.25805° -75.59175° 30 min 0.01 0.01
338°
2010 May 15, 22:08 36.25800° -75.59173° 30 min 0.01 0.00
2010 May 15, 21:38 36.25797° -75.59173° 30 min 0.01 0.00
290°
2010 May 15, 21:08 36.25796° -75.59169° 30 min 0.01 0.01
299°
2010 May 15, 20:38 36.25793° -75.59162° 30 min 0.01 0.00
332°
2010 May 15, 20:08 36.25790° -75.59160° 30 min 0.01 0.00
284°
2010 May 15, 19:38 36.25789° -75.59156° 30 min 0.02 0.00
270°
2010 May 15, 19:08 36.25789° -75.59151° 30 min 0.01 0.00
307°
2010 May 15, 18:38 36.25787° -75.59148° 30 min 0.02 0.00
253°
2010 May 15, 18:08 36.25788° -75.59143° 30 min 0.02 0.01
130°
2010 May 15, 17:38 36.25795° -75.59154° 30 min 0.01 0.02
321°
2010 May 15, 17:08 36.25784° -75.59143° 30 min 0.02 0.00
180°
2010 May 15, 16:38 36.25787° -75.59143° 30 min 0.02 0.01
180°
2010 May 15, 16:08 36.25792° -75.59143° 30 min 0.01 0.00
270°
2010 May 15, 15:38 36.25792° -75.59138° 30 min 0.01 0.00
180°
2010 May 15, 15:08 36.25794° -75.59138° 30 min 0.01 0.00
180°
2010 May 15, 14:38 36.25796° -75.59138° 30 min 0.01 0.00
2010 May 15, 14:08 36.25794° -75.59138° 30 min 0.01 0.00
213°
2010 May 15, 13:38 36.25796° -75.59137° 30 min 0.01 0.00
58°
2010 May 15, 13:08 36.25794° -75.59141° 30 min 0.01 0.00
180°
2010 May 15, 12:38 36.25795° -75.59141° 30 min 0.01 0.00
180°
2010 May 15, 12:08 36.25796° -75.59141° 30 min 0.01 0.00
219°
2010 May 15, 11:38 36.25798° -75.59138° 30 min 0.01 0.01
196°
2010 May 15, 11:08 36.25803° -75.59137° 30 min 0.01 0.01
103°
2010 May 15, 10:38 36.25804° -75.59143° 30 min 0.01 0.01
207°
2010 May 15, 10:08 36.25813° -75.59137° 30 min 0.01 0.02
101°
2010 May 15, 09:38 36.25817° -75.59160° 30 min 0.00 0.01
203°
2010 May 15, 09:08 36.25824° -75.59156° 30 min 0.01 0.02
273°
2010 May 15, 08:38 36.25823° -75.59138° 30 min 0.01 0.01
310°
2010 May 15, 08:08 36.25817° -75.59130° 30 min 0.01 0.00
107°
2010 May 15, 07:38 36.25819° -75.59135° 30 min 0.01 0.01
270°
2010 May 15, 07:08 36.25819° -75.59124° 30 min 0.01 0.01
24°
2010 May 15, 06:38 36.25814° -75.59126° 30 min 0.01 0.01
167°
2010 May 15, 06:08 36.25820° -75.59128° 30 min 0.01 0.01
347°
2010 May 15, 05:38 36.25814° -75.59126° 30 min 0.01 0.00
180°
2010 May 15, 05:08 36.25816° -75.59126° 30 min 0.01 0.01
180°
2010 May 15, 04:38 36.25820° -75.59126° 30 min 0.01 0.00
133°
2010 May 15, 04:08 36.25821° -75.59128° 30 min 0.01 0.01
112°
2010 May 15, 03:38 36.25823° -75.59135° 30 min 0.01 0.01
111°
2010 May 15, 03:08 36.25825° -75.59141° 30 min 0.01 0.00
141°
2010 May 15, 02:38 36.25827° -75.59143° 30 min 0.01 0.00
107°
2010 May 15, 02:08 36.25829° -75.59148° 30 min 0.01 0.00
180°
2010 May 15, 01:38 36.25829° -75.59148° 30 min 0.01 0.01
90°
2010 May 15, 01:08 36.25829° -75.59154° 30 min 0.01 0.00
180°
2010 May 15, 00:38 36.25830° -75.59154° 30 min 0.01 0.00
58°
2010 May 15, 00:08 36.25829° -75.59156° 30 min 0.01 0.00
90°
2010 May 14, 23:38 36.25829° -75.59160° 30 min 0.01 0.00
90°
2010 May 14, 23:08 36.25829° -75.59162° 30 min 0.01 0.01
2010 May 14, 22:38 36.25824° -75.59162° 30 min 0.01 0.00
63°
2010 May 14, 22:08 36.25822° -75.59167° 30 min 0.01 0.00
2010 May 14, 21:38 36.25819° -75.59167° 30 min 0.01 0.01
24°
2010 May 14, 21:08 36.25814° -75.59169° 30 min 0.01 0.01
320°
2010 May 14, 20:38 36.25806° -75.59160° 30 min 0.01 0.01
326°
2010 May 14, 20:08 36.25798° -75.59154° 30 min 0.01 0.01
258°
2010 May 14, 19:38 36.25800° -75.59143° 30 min 0.01 0.00
329°
2010 May 14, 19:08 36.25797° -75.59141° 30 min 0.01 0.00
270°
2010 May 14, 18:38 36.25797° -75.59137° 30 min 0.01 0.00
2010 May 14, 18:08 36.25796° -75.59137° 30 min 0.01 0.00
287°
2010 May 14, 17:38 36.25795° -75.59132° 30 min 0.01 0.00
122°
2010 May 14, 17:08 36.25796° -75.59135° 30 min 0.01 0.01
282°
2010 May 14, 16:38 36.25795° -75.59128° 30 min 0.02 0.01
300°
2010 May 14, 16:08 36.25789° -75.59115° 30 min 0.02 0.02
121°
2010 May 14, 15:38 36.25798° -75.59135° 30 min 0.01 0.00
238°
2010 May 14, 15:08 36.25800° -75.59132° 30 min 0.01 0.00
224°
2010 May 14, 14:38 36.25801° -75.59130° 30 min 0.01 0.01
41°
2010 May 14, 14:08 36.25797° -75.59135° 30 min 0.01 0.00
219°
2010 May 14, 13:38 36.25800° -75.59132° 30 min 0.01 0.00
90°
2010 May 14, 13:08 36.25800° -75.59137° 30 min 0.01 0.00
70°
2010 May 14, 12:38 36.25798° -75.59141° 30 min 0.01 0.01
140°
2010 May 14, 12:08 36.25805° -75.59148° 30 min 0.01 0.01
127°
2010 May 14, 11:38 36.25811° -75.59158° 30 min 0.00 0.01
135°
2010 May 14, 11:08 36.25814° -75.59162° 30 min 0.01 0.00
90°
2010 May 14, 10:38 36.25814° -75.59164° 30 min 0.01 0.00
90°
2010 May 14, 10:08 36.25814° -75.59167° 30 min 0.01 0.01
2010 May 14, 09:38 36.25808° -75.59167° 30 min 0.01 0.01
180°
2010 May 14, 09:08 36.25816° -75.59167° 30 min 0.01 0.02
344°
2010 May 14, 08:38 36.25803° -75.59162° 30 min 0.01 0.00
2010 May 14, 08:08 36.25800° -75.59162° 30 min 0.01 0.00
238°
2010 May 14, 07:38 36.25801° -75.59160° 30 min 0.01 0.03
343°
2010 May 14, 07:08 36.25779° -75.59151° 30 min 0.02 0.02
195°
2010 May 14, 06:38 36.25797° -75.59145° 30 min 0.01 0.00
180°
2010 May 14, 06:08 36.25800° -75.59145° 30 min 0.01 0.00
332°
2010 May 14, 05:38 36.25796° -75.59143° 30 min 0.01 0.00
238°
2010 May 14, 05:08 36.25797° -75.59141° 30 min 0.01 0.00
233°
2010 May 14, 04:38 36.25800° -75.59137° 30 min 0.01 0.00
20°
2010 May 14, 04:08 36.25796° -75.59138° 30 min 0.01 0.00
2010 May 14, 03:38 36.25795° -75.59138° 30 min 0.01 0.00
270°
2010 May 14, 03:08 36.25795° -75.59137° 30 min 0.01 0.00
33°
2010 May 14, 02:38 36.25793° -75.59138° 30 min 0.01 0.00
202°
2010 May 14, 02:08 36.25796° -75.59137° 30 min 0.01 0.00
2010 May 14, 01:38 36.25796° -75.59137° 30 min 0.01 0.00
90°
2010 May 14, 01:08 36.25796° -75.59138° 30 min 0.01 0.00
90°
2010 May 14, 00:38 36.25796° -75.59143° 30 min 0.01 0.00
2010 May 14, 00:08 36.25795° -75.59143° 30 min 0.01 0.00
122°
2010 May 13, 23:38 36.25796° -75.59145° 30 min 0.01 0.00
31°
2010 May 13, 23:08 36.25793° -75.59148° 30 min 0.01 0.00
2010 May 13, 22:38 36.25791° -75.59148° 30 min 0.01 0.00
90°
2010 May 13, 22:08 36.25791° -75.59149° 30 min 0.01 0.00
2010 May 13, 21:38 36.25789° -75.59149° 30 min 0.01 0.01
109°
2010 May 13, 21:08 36.25791° -75.59156° 30 min 0.01 0.01
282°
2010 May 13, 20:38 36.25790° -75.59149° 30 min 0.01 0.00
327°
2010 May 13, 20:08 36.25788° -75.59148° 30 min 0.02 0.01
11°
2010 May 13, 19:38 36.25781° -75.59149° 30 min 0.02 0.00
227°
2010 May 13, 19:08 36.25782° -75.59148° 30 min 0.02 0.00
270°
2010 May 13, 18:38 36.25782° -75.59143° 30 min 0.02 0.00
136°
2010 May 13, 18:08 36.25784° -75.59145° 30 min 0.02 0.00
302°
2010 May 13, 17:38 36.25783° -75.59143° 30 min 0.02 0.00
78°
2010 May 13, 17:08 36.25782° -75.59148° 30 min 0.02 0.01
251°
2010 May 13, 16:38 36.25784° -75.59141° 30 min 0.02 0.01
180°
2010 May 13, 16:08 36.25789° -75.59141° 30 min 0.02 0.00
2010 May 13, 15:38 36.25785° -75.59141° 30 min 0.02 0.00
208°
2010 May 13, 15:08 36.25789° -75.59138° 30 min 0.02 0.00
2010 May 13, 14:38 36.25789° -75.59138° 30 min 0.02 0.00
180°
2010 May 13, 14:08 36.25790° -75.59138° 30 min 0.02 0.00
31°
2010 May 13, 13:38 36.25787° -75.59141° 30 min 0.02 0.00
180°
2010 May 13, 13:08 36.25788° -75.59141° 30 min 0.02 0.00
180°
2010 May 13, 12:38 36.25791° -75.59141° 30 min 0.01 0.00
2010 May 13, 12:08 36.25790° -75.59141° 30 min 0.02 0.00
2010 May 13, 11:38 36.25790° -75.59141° 30 min 0.02 0.00
78°
2010 May 13, 11:08 36.25789° -75.59145° 30 min 0.02 0.00
70°
2010 May 13, 10:38 36.25788° -75.59149° 30 min 0.02 0.00
332°
2010 May 13, 10:08 36.25785° -75.59148° 30 min 0.02 0.00
2010 May 13, 09:38 36.25785° -75.59148° 30 min 0.02 0.00
2010 May 13, 09:08 36.25785° -75.59148° 30 min 0.02 0.00
180°
2010 May 13, 08:38 36.25787° -75.59148° 30 min 0.02 0.00
2010 May 13, 08:08 36.25787° -75.59148° 30 min 0.02 0.00
180°
2010 May 13, 07:38 36.25788° -75.59148° 30 min 0.02 0.00
238°
2010 May 13, 07:08 36.25789° -75.59145° 30 min 0.02 0.00
270°
2010 May 13, 06:38 36.25789° -75.59143° 30 min 0.02 0.00
2010 May 13, 06:08 36.25788° -75.59143° 30 min 0.02 0.00
224°
2010 May 13, 05:38 36.25790° -75.59141° 30 min 0.02 0.00
2010 May 13, 05:08 36.25790° -75.59141° 30 min 0.02 0.00
2010 May 13, 04:38 36.25790° -75.59141° 30 min 0.02 0.00
302°
2010 May 13, 04:08 36.25788° -75.59137° 30 min 0.02 0.01
167°
2010 May 13, 03:38 36.25793° -75.59138° 30 min 0.01 0.00
238°
2010 May 13, 03:08 36.25795° -75.59135° 30 min 0.01 0.01
58°
2010 May 13, 02:38 36.25792° -75.59141° 30 min 0.01 0.01
238°
2010 May 13, 02:08 36.25795° -75.59135° 30 min 0.01 0.00
292°
2010 May 13, 01:38 36.25794° -75.59132° 30 min 0.01 0.00
73°
2010 May 13, 01:08 36.25793° -75.59137° 30 min 0.01 0.00
147°
2010 May 13, 00:38 36.25795° -75.59138° 30 min 0.01 0.00
90°
2010 May 13, 00:08 36.25795° -75.59143° 30 min 0.01 0.01
69°
2010 May 12, 23:38 36.25793° -75.59149° 30 min 0.01 0.00
2010 May 12, 23:08 36.25792° -75.59149° 30 min 0.01 0.00
107°
2010 May 12, 22:38 36.25793° -75.59154° 30 min 0.01 0.01
302°
2010 May 12, 22:08 36.25791° -75.59149° 30 min 0.01 0.01
78°
2010 May 12, 21:38 36.25790° -75.59156° 30 min 0.01 0.01
270°
2010 May 12, 21:08 36.25790° -75.59148° 30 min 0.01 0.00
2010 May 12, 20:38 36.25789° -75.59148° 30 min 0.02 0.00
2010 May 12, 20:08 36.25787° -75.59148° 30 min 0.02 0.00
2010 May 12, 19:38 36.25787° -75.59148° 30 min 0.02 0.00
270°
2010 May 12, 19:08 36.25787° -75.59143° 30 min 0.02 0.00
2010 May 12, 18:38 36.25787° -75.59143° 30 min 0.02 0.00
180°
2010 May 12, 18:08 36.25788° -75.59143° 30 min 0.02 0.01
249°
2010 May 12, 17:38 36.25790° -75.59137° 30 min 0.02 0.01
230°
2010 May 12, 17:08 36.25794° -75.59130° 30 min 0.02 0.00
39°
2010 May 12, 16:38 36.25792° -75.59132° 30 min 0.02 0.01
221°
2010 May 12, 16:08 36.25796° -75.59128° 30 min 0.02 0.01
90°
2010 May 12, 15:38 36.25796° -75.59135° 30 min 0.01 0.01
286°
2010 May 12, 15:08 36.25794° -75.59126° 30 min 0.02 0.00
211°
2010 May 12, 14:38 36.25797° -75.59124° 30 min 0.02 0.00
270°
2010 May 12, 14:08 36.25797° -75.59122° 30 min 0.02 0.01
180°
2010 May 12, 13:38 36.25806° -75.59122° 30 min 0.02 0.01
158°
2010 May 12, 13:08 36.25810° -75.59124° 30 min 0.01 0.00
180°
2010 May 12, 12:38 36.25811° -75.59124° 30 min 0.01 0.00
248°
2010 May 12, 12:08 36.25812° -75.59122° 30 min 0.01 0.00
141°
2010 May 12, 11:38 36.25814° -75.59124° 30 min 0.01 0.00
149°
2010 May 12, 11:08 36.25817° -75.59126° 30 min 0.01 0.01
125°
2010 May 12, 10:38 36.25821° -75.59132° 30 min 0.01 0.01
154°
2010 May 12, 10:08 36.25829° -75.59137° 30 min 0.01 0.00
270°
2010 May 12, 09:38 36.25829° -75.59132° 30 min 0.01 0.01
270°
2010 May 12, 09:08 36.25829° -75.59126° 30 min 0.02 0.04
82°
2010 May 12, 08:38 36.25824° -75.59164° 30 min 0.01 0.00
2010 May 12, 08:08 36.25822° -75.59164° 30 min 0.01 0.00
302°
2010 May 12, 07:38 36.25821° -75.59162° 30 min 0.01 0.01
47°
2010 May 12, 07:08 36.25817° -75.59167° 30 min 0.01 0.01
2010 May 12, 06:38 36.25811° -75.59167° 30 min 0.01 0.01
316°
2010 May 12, 06:08 36.25803° -75.59156° 30 min 0.01 0.00
302°
2010 May 12, 05:38 36.25801° -75.59154° 30 min 0.01 0.01
2010 May 12, 05:08 36.25795° -75.59154° 30 min 0.01 0.01
274°
2010 May 12, 04:38 36.25794° -75.59141° 30 min 0.01 0.01
180°
2010 May 12, 04:08 36.25798° -75.59141° 30 min 0.01 0.00
58°
2010 May 12, 03:38 36.25797° -75.59143° 30 min 0.01 0.00
287°
2010 May 12, 03:08 36.25796° -75.59138° 30 min 0.01 0.00
2010 May 12, 02:38 36.25795° -75.59138° 30 min 0.01 0.00
141°
2010 May 12, 02:08 36.25797° -75.59141° 30 min 0.01 0.00
2010 May 12, 01:38 36.25797° -75.59141° 30 min 0.01 0.00
90°
2010 May 12, 01:08 36.25797° -75.59143° 30 min 0.01 0.01
90°
2010 May 12, 00:38 36.25797° -75.59149° 30 min 0.01 0.00
90°
2010 May 12, 00:08 36.25797° -75.59154° 30 min 0.01 0.01
161°
2010 May 11, 23:38 36.25803° -75.59156° 30 min 0.01 0.01
50°
2010 May 11, 23:08 36.25798° -75.59162° 30 min 0.01 0.00
180°
2010 May 11, 22:38 36.25800° -75.59162° 30 min 0.01 0.00
112°
2010 May 11, 22:08 36.25800° -75.59164° 30 min 0.01 0.00
2010 May 11, 21:38 36.25800° -75.59164° 30 min 0.01 0.00
102°
2010 May 11, 21:08 36.25800° -75.59169° 30 min 0.01 0.00
253°
2010 May 11, 20:38 36.25801° -75.59164° 30 min 0.01 0.00
2010 May 11, 20:08 36.25801° -75.59164° 30 min 0.01 0.00
90°
2010 May 11, 19:38 36.25801° -75.59167° 30 min 0.01 0.00
90°
2010 May 11, 19:08 36.25801° -75.59169° 30 min 0.01 0.01
258°
2010 May 11, 18:38 36.25803° -75.59162° 30 min 0.01 0.00
31°
2010 May 11, 18:08 36.25800° -75.59164° 30 min 0.01 0.00
270°
2010 May 11, 17:38 36.25800° -75.59162° 30 min 0.01 0.01
19°
2010 May 11, 17:08 36.25794° -75.59164° 30 min 0.01 0.00
224°
2010 May 11, 16:38 36.25796° -75.59162° 30 min 0.01 0.00
208°
2010 May 11, 16:08 36.25800° -75.59160° 30 min 0.01 0.00
307°
2010 May 11, 15:38 36.25797° -75.59156° 30 min 0.01 0.01
292°
2010 May 11, 15:08 36.25795° -75.59149° 30 min 0.01 0.00
107°
2010 May 11, 14:38 36.25796° -75.59154° 30 min 0.01 0.00
141°
2010 May 11, 14:08 36.25798° -75.59156° 30 min 0.01 0.00
238°
2010 May 11, 13:38 36.25800° -75.59154° 30 min 0.01 0.00
90°
2010 May 11, 13:08 36.25800° -75.59156° 30 min 0.01 0.01
144°
2010 May 11, 12:38 36.25804° -75.59160° 30 min 0.01 0.00
180°
2010 May 11, 12:08 36.25806° -75.59160° 30 min 0.01 0.01
136°
2010 May 11, 11:38 36.25813° -75.59169° 30 min 0.01 0.01
180°
2010 May 11, 11:08 36.25819° -75.59169° 30 min 0.01 0.00
270°
2010 May 11, 10:38 36.25819° -75.59164° 30 min 0.01 0.01
112°
2010 May 11, 10:08 36.25821° -75.59171° 30 min 0.01 0.01
270°
2010 May 11, 09:38 36.25821° -75.59164° 30 min 0.01 0.00
2010 May 11, 09:08 36.25821° -75.59164° 30 min 0.01 0.00
90°
2010 May 11, 08:38 36.25821° -75.59167° 30 min 0.01 0.01
330°
2010 May 11, 08:08 36.25814° -75.59162° 30 min 0.01 0.01
120°
2010 May 11, 07:38 36.25819° -75.59171° 30 min 0.01 0.00
2010 May 11, 07:08 36.25816° -75.59171° 30 min 0.01 0.00
180°
2010 May 11, 06:38 36.25817° -75.59171° 30 min 0.01 0.01
321°
2010 May 11, 06:08 36.25812° -75.59167° 30 min 0.01 0.00
329°
2010 May 11, 05:38 36.25809° -75.59164° 30 min 0.01 0.01
310°
2010 May 11, 05:08 36.25805° -75.59158° 30 min 0.01 0.01
302°
2010 May 11, 04:38 36.25803° -75.59154° 30 min 0.01 0.00
2010 May 11, 04:08 36.25800° -75.59154° 30 min 0.01 0.01
294°
2010 May 11, 03:38 36.25797° -75.59145° 30 min 0.01 0.00
270°
2010 May 11, 03:08 36.25797° -75.59141° 30 min 0.01 0.00
302°
2010 May 11, 02:38 36.25796° -75.59138° 30 min 0.01 0.01
222°
2010 May 11, 02:08 36.25800° -75.59135° 30 min 0.01 0.00
2010 May 11, 01:38 36.25797° -75.59135° 30 min 0.01 0.00
110°
2010 May 11, 01:08 36.25798° -75.59138° 30 min 0.01 0.00
180°
2010 May 11, 00:38 36.25800° -75.59138° 30 min 0.01 0.00
58°
2010 May 11, 00:08 36.25798° -75.59141° 30 min 0.01 0.00
180°
2010 May 10, 23:38 36.25800° -75.59141° 30 min 0.01 0.00
2010 May 10, 23:08 36.25798° -75.59141° 30 min 0.01 0.01
58°
2010 May 10, 22:38 36.25796° -75.59145° 30 min 0.01 0.00
90°
2010 May 10, 22:08 36.25796° -75.59148° 30 min 0.01 0.00
70°
2010 May 10, 21:38 36.25795° -75.59151° 30 min 0.01 0.00
122°
2010 May 10, 21:08 36.25796° -75.59154° 30 min 0.01 0.00
180°
2010 May 10, 20:38 36.25797° -75.59154° 30 min 0.01 0.00
2010 May 10, 20:08 36.25794° -75.59154° 30 min 0.01 0.00
73°
2010 May 10, 19:38 36.25793° -75.59158° 30 min 0.01 0.00
302°
2010 May 10, 19:08 36.25792° -75.59156° 30 min 0.01 0.00
122°
2010 May 10, 18:38 36.25793° -75.59158° 30 min 0.01 0.00
287°
2010 May 10, 18:08 36.25792° -75.59154° 30 min 0.01 0.01
334°
2010 May 10, 17:38 36.25784° -75.59149° 30 min 0.02 0.00
200°
2010 May 10, 17:08 36.25788° -75.59148° 30 min 0.02 0.00
270°
2010 May 10, 16:38 36.25788° -75.59145° 30 min 0.02 0.00
224°
2010 May 10, 16:08 36.25790° -75.59143° 30 min 0.01 0.00
180°
2010 May 10, 15:38 36.25791° -75.59143° 30 min 0.01 0.00
2010 May 10, 15:08 36.25791° -75.59143° 30 min 0.01 0.01
238°
2010 May 10, 14:38 36.25793° -75.59138° 30 min 0.01 0.00
2010 May 10, 14:08 36.25792° -75.59138° 30 min 0.01 0.00
227°
2010 May 10, 13:38 36.25793° -75.59137° 30 min 0.01 0.00
243°
2010 May 10, 13:08 36.25795° -75.59132° 30 min 0.01 0.00
107°
2010 May 10, 12:38 36.25796° -75.59137° 30 min 0.01 0.00
152°
2010 May 10, 12:08 36.25798° -75.59138° 30 min 0.01 0.00
2010 May 10, 11:38 36.25798° -75.59138° 30 min 0.01 0.00
90°
2010 May 10, 11:08 36.25798° -75.59141° 30 min 0.01 0.00
238°
2010 May 10, 10:38 36.25800° -75.59138° 30 min 0.01 0.00
73°
2010 May 10, 10:08 36.25798° -75.59143° 30 min 0.01 0.00
180°
2010 May 10, 09:38 36.25800° -75.59143° 30 min 0.01 0.01
75°
2010 May 10, 09:08 36.25797° -75.59154° 30 min 0.01 0.01
112°
2010 May 10, 08:38 36.25801° -75.59167° 30 min 0.01 0.00
90°
2010 May 10, 08:08 36.25801° -75.59169° 30 min 0.01 0.00
122°
2010 May 10, 07:38 36.25803° -75.59171° 30 min 0.01 0.01
180°
2010 May 10, 07:08 36.25808° -75.59171° 30 min 0.01 0.01
25°
2010 May 10, 06:38 36.25797° -75.59177° 30 min 0.02 0.01
238°
2010 May 10, 06:08 36.25801° -75.59169° 30 min 0.01 0.00
287°
2010 May 10, 05:38 36.25800° -75.59164° 30 min 0.01 0.00
282°
2010 May 10, 05:08 36.25800° -75.59160° 30 min 0.01 0.03
221°
2010 May 10, 04:38 36.25817° -75.59141° 30 min 0.01 0.00
329°
2010 May 10, 04:08 36.25814° -75.59138° 30 min 0.01 0.00
332°
2010 May 10, 03:38 36.25812° -75.59137° 30 min 0.01 0.00
270°
2010 May 10, 03:08 36.25812° -75.59135° 30 min 0.01 0.01
2010 May 10, 02:38 36.25808° -75.59135° 30 min 0.01 0.00
270°
2010 May 10, 02:08 36.25808° -75.59132° 30 min 0.01 0.00
270°
2010 May 10, 01:38 36.25808° -75.59130° 30 min 0.01 0.00
107°
2010 May 10, 01:08 36.25809° -75.59135° 30 min 0.01 0.00
2010 May 10, 00:38 36.25808° -75.59135° 30 min 0.01 0.00
2010 May 10, 00:08 36.25807° -75.59135° 30 min 0.01 0.00
58°
2010 May 09, 23:38 36.25806° -75.59137° 30 min 0.01 0.00
76°
2010 May 09, 23:08 36.25805° -75.59141° 30 min 0.01 0.00
302°
2010 May 09, 22:38 36.25804° -75.59138° 30 min 0.01 0.01
58°
2010 May 09, 22:08 36.25801° -75.59143° 30 min 0.01 0.00
238°
2010 May 09, 21:38 36.25803° -75.59141° 30 min 0.01 0.00
122°
2010 May 09, 21:08 36.25804° -75.59143° 30 min 0.01 0.01
47°
2010 May 09, 20:38 36.25800° -75.59148° 30 min 0.01 0.00
2010 May 09, 20:08 36.25800° -75.59148° 30 min 0.01 0.00
2010 May 09, 19:38 36.25798° -75.59148° 30 min 0.01 0.00
70°
2010 May 09, 19:08 36.25797° -75.59151° 30 min 0.01 0.00
122°
2010 May 09, 18:38 36.25798° -75.59154° 30 min 0.01 0.01
285°
2010 May 09, 18:08 36.25796° -75.59143° 30 min 0.01 0.01
82°
2010 May 09, 17:38 36.25795° -75.59154° 30 min 0.01 0.00
297°
2010 May 09, 17:08 36.25793° -75.59149° 30 min 0.01 0.00
180°
2010 May 09, 16:38 36.25794° -75.59149° 30 min 0.01 0.01
318°
2010 May 09, 16:08 36.25791° -75.59145° 30 min 0.01 0.00
58°
2010 May 09, 15:38 36.25790° -75.59148° 30 min 0.01 0.00
253°
2010 May 09, 15:08 36.25791° -75.59143° 30 min 0.01 0.01
180°
2010 May 09, 14:38 36.25796° -75.59143° 30 min 0.01 0.01
19°
2010 May 09, 14:08 36.25791° -75.59145° 30 min 0.01 0.00
208°
2010 May 09, 13:38 36.25794° -75.59143° 30 min 0.01 0.00
2010 May 09, 13:08 36.25792° -75.59143° 30 min 0.01 0.00
2010 May 09, 12:38 36.25792° -75.59143° 30 min 0.01 0.00
90°
2010 May 09, 12:08 36.25792° -75.59145° 30 min 0.01 0.00
58°
2010 May 09, 11:38 36.25791° -75.59148° 30 min 0.01 0.00
33°
2010 May 09, 11:08 36.25789° -75.59149° 30 min 0.01 0.00
102°
2010 May 09, 10:38 36.25790° -75.59154° 30 min 0.01 0.00
2010 May 09, 10:08 36.25789° -75.59154° 30 min 0.01 0.00
102°
2010 May 09, 09:38 36.25790° -75.59158° 30 min 0.01 0.00
2010 May 09, 09:08 36.25790° -75.59158° 30 min 0.01 0.00
22°
2010 May 09, 08:38 36.25787° -75.59160° 30 min 0.02 0.00
180°
2010 May 09, 08:08 36.25788° -75.59160° 30 min 0.02 0.01
134°
2010 May 09, 07:38 36.25793° -75.59167° 30 min 0.01 0.01
302°
2010 May 09, 07:08 36.25790° -75.59160° 30 min 0.01 0.00
327°
2010 May 09, 06:38 36.25788° -75.59158° 30 min 0.02 0.00
180°
2010 May 09, 06:08 36.25790° -75.59158° 30 min 0.01 0.00
133°
2010 May 09, 05:38 36.25791° -75.59160° 30 min 0.01 0.00
2010 May 09, 05:08 36.25791° -75.59160° 30 min 0.01 0.00
2010 May 09, 04:38 36.25790° -75.59160° 30 min 0.01 0.00
2010 May 09, 04:08 36.25789° -75.59160° 30 min 0.02 0.00
290°
2010 May 09, 03:38 36.25788° -75.59156° 30 min 0.02 0.00
180°
2010 May 09, 03:08 36.25790° -75.59156° 30 min 0.01 0.01
278°
2010 May 09, 02:38 36.25789° -75.59149° 30 min 0.01 0.00
180°
2010 May 09, 02:08 36.25790° -75.59149° 30 min 0.01 0.00
270°
2010 May 09, 01:38 36.25790° -75.59148° 30 min 0.01 0.00
238°
2010 May 09, 01:08 36.25791° -75.59145° 30 min 0.01 0.00
2010 May 09, 00:38 36.25791° -75.59145° 30 min 0.01 0.01
238°
2010 May 09, 00:08 36.25793° -75.59141° 30 min 0.01 0.00
211°
2010 May 08, 23:38 36.25796° -75.59138° 30 min 0.01 0.00
180°
2010 May 08, 23:08 36.25797° -75.59138° 30 min 0.01 0.00
141°
2010 May 08, 22:38 36.25800° -75.59141° 30 min 0.01 0.02
190°
2010 May 08, 22:08 36.25817° -75.59137° 30 min 0.01 0.02
119°
2010 May 08, 21:38 36.25825° -75.59154° 30 min 0.01 0.01
166°
2010 May 08, 21:08 36.25833° -75.59156° 30 min 0.01 0.00
332°
2010 May 08, 20:38 36.25829° -75.59154° 30 min 0.01 0.00
78°
2010 May 08, 20:08 36.25829° -75.59158° 30 min 0.01 0.00
122°
2010 May 08, 19:38 36.25829° -75.59160° 30 min 0.01 0.00
227°
2010 May 08, 19:08 36.25830° -75.59158° 30 min 0.01 0.00
90°
2010 May 08, 18:38 36.25830° -75.59160° 30 min 0.01 0.00
2010 May 08, 18:08 36.25830° -75.59160° 30 min 0.01 0.00
302°
2010 May 08, 17:38 36.25829° -75.59156° 30 min 0.01 0.00
122°
2010 May 08, 17:08 36.25830° -75.59160° 30 min 0.01 0.00
270°
2010 May 08, 16:38 36.25830° -75.59158° 30 min 0.01 0.00
270°
2010 May 08, 16:08 36.25830° -75.59154° 30 min 0.01 0.00
90°
2010 May 08, 15:38 36.25830° -75.59156° 30 min 0.01 0.00
180°
2010 May 08, 15:08 36.25833° -75.59156° 30 min 0.01 0.02
48°
2010 May 08, 14:38 36.25823° -75.59169° 30 min 0.01 0.02
220°
2010 May 08, 14:08 36.25836° -75.59156° 30 min 0.01 0.01
260°
2010 May 08, 13:38 36.25837° -75.59148° 30 min 0.01 0.01
43°
2010 May 08, 13:08 36.25832° -75.59154° 30 min 0.01 0.01
238°
2010 May 08, 12:38 36.25834° -75.59149° 30 min 0.01 0.00
58°
2010 May 08, 12:08 36.25833° -75.59151° 30 min 0.01 0.00
90°
2010 May 08, 11:38 36.25833° -75.59154° 30 min 0.01 0.00
332°
2010 May 08, 11:08 36.25829° -75.59151° 30 min 0.01 0.00
2010 May 08, 10:38 36.25829° -75.59151° 30 min 0.01 0.00
122°
2010 May 08, 10:08 36.25830° -75.59154° 30 min 0.01 0.00
2010 May 08, 09:38 36.25830° -75.59154° 30 min 0.01 0.00
2010 May 08, 09:08 36.25830° -75.59154° 30 min 0.01 0.00
180°
2010 May 08, 08:38 36.25833° -75.59154° 30 min 0.01 0.00
39°
2010 May 08, 08:08 36.25830° -75.59156° 30 min 0.01 0.00
208°
2010 May 08, 07:38 36.25834° -75.59154° 30 min 0.01 0.00
2010 May 08, 07:08 36.25834° -75.59154° 30 min 0.01 0.00
39°
2010 May 08, 06:38 36.25832° -75.59156° 30 min 0.01 0.00
122°
2010 May 08, 06:08 36.25833° -75.59158° 30 min 0.01 0.00
2010 May 08, 05:38 36.25829° -75.59158° 30 min 0.01 0.00
2010 May 08, 05:08 36.25829° -75.59158° 30 min 0.01 0.00
2010 May 08, 04:38 36.25829° -75.59158° 30 min 0.01 0.00
270°
2010 May 08, 04:08 36.25829° -75.59156° 30 min 0.01 0.01
313°
2010 May 08, 03:38 36.25825° -75.59151° 30 min 0.01 0.02
305°
2010 May 08, 03:08 36.25816° -75.59135° 30 min 0.01 0.01
346°
2010 May 08, 02:38 36.25808° -75.59132° 30 min 0.01 0.00
321°
2010 May 08, 02:08 36.25806° -75.59130° 30 min 0.01 0.00
2010 May 08, 01:38 36.25803° -75.59130° 30 min 0.01 0.00
238°
2010 May 08, 01:08 36.25804° -75.59128° 30 min 0.01 0.00
58°
2010 May 08, 00:38 36.25803° -75.59130° 30 min 0.01 0.00
211°
2010 May 08, 00:08 36.25806° -75.59128° 30 min 0.01 0.00
63°
2010 May 07, 23:38 36.25804° -75.59132° 30 min 0.01 0.00
2010 May 07, 23:08 36.25803° -75.59132° 30 min 0.01 0.00
270°
2010 May 07, 22:38 36.25803° -75.59130° 30 min 0.01 0.00
73°
2010 May 07, 22:08 36.25801° -75.59135° 30 min 0.01 0.00
58°
2010 May 07, 21:38 36.25800° -75.59137° 30 min 0.01 0.00
90°
2010 May 07, 21:08 36.25800° -75.59141° 30 min 0.01 0.00
2010 May 07, 20:38 36.25800° -75.59141° 30 min 0.01 0.00
68°
2010 May 07, 20:08 36.25800° -75.59143° 30 min 0.01 0.00
90°
2010 May 07, 19:38 36.25800° -75.59145° 30 min 0.01 0.00
90°
2010 May 07, 19:08 36.25800° -75.59149° 30 min 0.01 0.00
117°
2010 May 07, 18:38 36.25801° -75.59154° 30 min 0.01 0.01
103°
2010 May 07, 18:08 36.25803° -75.59160° 30 min 0.01 0.00
2010 May 07, 17:38 36.25800° -75.59160° 30 min 0.01 0.01
138°
2010 May 07, 17:08 36.25806° -75.59167° 30 min 0.01 0.01
90°
2010 May 07, 16:38 36.25806° -75.59173° 30 min 0.01 0.00
2010 May 07, 16:08 36.25805° -75.59173° 30 min 0.01 0.01
345°
2010 May 07, 15:38 36.25800° -75.59171° 30 min 0.01 0.00
180°
2010 May 07, 15:08 36.25804° -75.59171° 30 min 0.01 0.00
2010 May 07, 14:38 36.25801° -75.59171° 30 min 0.01 0.00
180°
2010 May 07, 14:08 36.25803° -75.59171° 30 min 0.01 0.00
2010 May 07, 13:38 36.25801° -75.59171° 30 min 0.01 0.00
302°
2010 May 07, 13:08 36.25800° -75.59169° 30 min 0.01 0.01
343°
2010 May 07, 12:38 36.25794° -75.59167° 30 min 0.01 0.00
149°
2010 May 07, 12:08 36.25797° -75.59169° 30 min 0.01 0.00
321°
2010 May 07, 11:38 36.25795° -75.59167° 30 min 0.01 0.00
270°
2010 May 07, 11:08 36.25795° -75.59164° 30 min 0.01 0.00
282°
2010 May 07, 10:38 36.25794° -75.59160° 30 min 0.01 0.00
238°
2010 May 07, 10:08 36.25795° -75.59158° 30 min 0.01 0.01
158°
2010 May 07, 09:38 36.25803° -75.59162° 30 min 0.01 0.01
324°
2010 May 07, 09:08 36.25798° -75.59158° 30 min 0.01 0.00
2010 May 07, 08:38 36.25796° -75.59158° 30 min 0.01 0.00
238°
2010 May 07, 08:08 36.25797° -75.59156° 30 min 0.01 0.01
330°
2010 May 07, 07:38 36.25791° -75.59151° 30 min 0.01 0.01
161°
2010 May 07, 07:08 36.25801° -75.59156° 30 min 0.01 0.01
171°
2010 May 07, 06:38 36.25813° -75.59158° 30 min 0.00 0.01
196°
2010 May 07, 06:08 36.25820° -75.59156° 30 min 0.00 0.01
138°
2010 May 07, 05:38 36.25823° -75.59160° 30 min 0.01 0.00
238°
2010 May 07, 05:08 36.25824° -75.59158° 30 min 0.01 0.00
253°
2010 May 07, 04:38 36.25825° -75.59154° 30 min 0.01 0.00
253°
2010 May 07, 04:08 36.25826° -75.59149° 30 min 0.01 0.00
270°
2010 May 07, 03:38 36.25826° -75.59145° 30 min 0.01 0.00
287°
2010 May 07, 03:08 36.25825° -75.59141° 30 min 0.01 0.00
152°
2010 May 07, 02:38 36.25829° -75.59143° 30 min 0.01 0.00
321°
2010 May 07, 02:08 36.25826° -75.59141° 30 min 0.01 0.00
122°
2010 May 07, 01:38 36.25827° -75.59143° 30 min 0.01 0.00
238°
2010 May 07, 01:08 36.25829° -75.59141° 30 min 0.01 0.00
2010 May 07, 00:38 36.25827° -75.59141° 30 min 0.01 0.00
270°
2010 May 07, 00:08 36.25827° -75.59138° 30 min 0.01 0.00
2010 May 06, 23:38 36.25827° -75.59138° 30 min 0.01 0.01
47°
2010 May 06, 23:08 36.25824° -75.59143° 30 min 0.01 0.00
180°
2010 May 06, 22:38 36.25826° -75.59143° 30 min 0.01 0.00
141°
2010 May 06, 22:08 36.25829° -75.59145° 30 min 0.01 0.00
2010 May 06, 21:38 36.25829° -75.59145° 30 min 0.01 0.01
77°
2010 May 06, 21:08 36.25827° -75.59151° 30 min 0.01 0.01
36°
2010 May 06, 20:38 36.25820° -75.59158° 30 min 0.00 0.01
103°
2010 May 06, 20:08 36.25821° -75.59164° 30 min 0.01 0.01
319°
2010 May 06, 19:38 36.25817° -75.59160° 30 min 0.00 0.00
2010 May 06, 19:08 36.25816° -75.59160° 30 min 0.00 0.01
19°
2010 May 06, 18:38 36.25810° -75.59162° 30 min 0.01 0.01
180°
2010 May 06, 18:08 36.25817° -75.59162° 30 min 0.01 0.05
123°
2010 May 06, 17:38 36.25839° -75.59203° 30 min 0.03 0.04
307°
2010 May 06, 17:08 36.25819° -75.59169° 30 min 0.01 0.01
310°
2010 May 06, 16:38 36.25816° -75.59164° 30 min 0.01 0.00
211°
2010 May 06, 16:08 36.25819° -75.59162° 30 min 0.01 0.00
270°
2010 May 06, 15:38 36.25819° -75.59158° 30 min 0.00 0.01
284°
2010 May 06, 15:08 36.25817° -75.59149° 30 min 0.00 0.00
256°
2010 May 06, 14:38 36.25817° -75.59145° 30 min 0.00 0.00
180°
2010 May 06, 14:08 36.25820° -75.59145° 30 min 0.00 0.01
282°
2010 May 06, 13:38 36.25819° -75.59138° 30 min 0.01 0.00
313°
2010 May 06, 13:08 36.25817° -75.59137° 30 min 0.01 0.00
2010 May 06, 12:38 36.25817° -75.59137° 30 min 0.01 0.00
316°
2010 May 06, 12:08 36.25816° -75.59135° 30 min 0.01 0.01
314°
2010 May 06, 11:38 36.25810° -75.59128° 30 min 0.01 0.00
149°
2010 May 06, 11:08 36.25813° -75.59130° 30 min 0.01 0.00
180°
2010 May 06, 10:38 36.25814° -75.59130° 30 min 0.01 0.00
238°
2010 May 06, 10:08 36.25816° -75.59128° 30 min 0.01 0.01
35°
2010 May 06, 09:38 36.25810° -75.59132° 30 min 0.01 0.00
136°
2010 May 06, 09:08 36.25812° -75.59135° 30 min 0.01 0.00
208°
2010 May 06, 08:38 36.25816° -75.59132° 30 min 0.01 0.00
117°
2010 May 06, 08:08 36.25817° -75.59137° 30 min 0.01 0.00
127°
2010 May 06, 07:38 36.25820° -75.59141° 30 min 0.01 0.00
152°
2010 May 06, 07:08 36.25823° -75.59143° 30 min 0.01 0.00
180°
2010 May 06, 06:38 36.25825° -75.59143° 30 min 0.01 0.00
2010 May 06, 06:08 36.25824° -75.59143° 30 min 0.01 0.01
84°
2010 May 06, 05:38 36.25823° -75.59151° 30 min 0.01 0.01
71°
2010 May 06, 05:08 36.25821° -75.59160° 30 min 0.01 0.00
2010 May 06, 04:38 36.25821° -75.59160° 30 min 0.01 0.00
58°
2010 May 06, 04:08 36.25820° -75.59162° 30 min 0.01 0.00
2010 May 06, 03:38 36.25817° -75.59162° 30 min 0.01 0.00
2010 May 06, 03:08 36.25814° -75.59162° 30 min 0.01 0.01
344°
2010 May 06, 02:38 36.25808° -75.59160° 30 min 0.01 0.00
2010 May 06, 02:08 36.25805° -75.59160° 30 min 0.01 0.00
2010 May 06, 01:38 36.25804° -75.59160° 30 min 0.01 0.00
307°
2010 May 06, 01:08 36.25801° -75.59156° 30 min 0.01 0.00
329°
2010 May 06, 00:38 36.25798° -75.59154° 30 min 0.01 0.00
287°
2010 May 06, 00:08 36.25797° -75.59149° 30 min 0.01 0.00
122°
2010 May 05, 23:38 36.25798° -75.59151° 30 min 0.01 0.00
290°
2010 May 05, 23:08 36.25797° -75.59148° 30 min 0.01 0.01
310°
2010 May 05, 22:38 36.25794° -75.59143° 30 min 0.01 0.00
73°
2010 May 05, 22:08 36.25793° -75.59148° 30 min 0.01 0.01
180°
2010 May 05, 21:38 36.25797° -75.59148° 30 min 0.01 0.00
287°
2010 May 05, 21:08 36.25796° -75.59143° 30 min 0.01 0.00
180°
2010 May 05, 20:38 36.25798° -75.59143° 30 min 0.01 0.00
180°
2010 May 05, 20:08 36.25800° -75.59143° 30 min 0.01 0.01
338°
2010 May 05, 19:38 36.25795° -75.59141° 30 min 0.01 0.01
12°
2010 May 05, 19:08 36.25787° -75.59143° 30 min 0.02 0.01
164°
2010 May 05, 18:38 36.25793° -75.59145° 30 min 0.01 0.00
122°
2010 May 05, 18:08 36.25794° -75.59148° 30 min 0.01 0.00
2010 May 05, 17:38 36.25791° -75.59148° 30 min 0.01 0.00
180°
2010 May 05, 17:08 36.25792° -75.59148° 30 min 0.01 0.01
128°
2010 May 05, 16:38 36.25797° -75.59156° 30 min 0.01 0.01
302°
2010 May 05, 16:08 36.25793° -75.59148° 30 min 0.01 0.00
253°
2010 May 05, 15:38 36.25794° -75.59143° 30 min 0.01 0.00
112°
2010 May 05, 15:08 36.25795° -75.59145° 30 min 0.01 0.00
2010 May 05, 14:38 36.25793° -75.59145° 30 min 0.01 0.01
204°
2010 May 05, 14:08 36.25797° -75.59143° 30 min 0.01 0.00
58°
2010 May 05, 13:38 36.25796° -75.59145° 30 min 0.01 0.00
208°
2010 May 05, 13:08 36.25800° -75.59143° 30 min 0.01 0.00
224°
2010 May 05, 12:38 36.25801° -75.59141° 30 min 0.01 0.00
250°
2010 May 05, 12:08 36.25803° -75.59137° 30 min 0.01 0.00
53°
2010 May 05, 11:38 36.25800° -75.59141° 30 min 0.01 0.00
208°
2010 May 05, 11:08 36.25804° -75.59138° 30 min 0.01 0.00
213°
2010 May 05, 10:38 36.25806° -75.59137° 30 min 0.01 0.00
2010 May 05, 10:08 36.25805° -75.59137° 30 min 0.01 0.00
180°
2010 May 05, 09:38 36.25806° -75.59137° 30 min 0.01 0.00
180°
2010 May 05, 09:08 36.25807° -75.59137° 30 min 0.01 0.00
180°
2010 May 05, 08:38 36.25809° -75.59137° 30 min 0.01 0.01
52°
2010 May 05, 08:08 36.25804° -75.59145° 30 min 0.01 0.00
2010 May 05, 07:38 36.25804° -75.59145° 30 min 0.01 0.01
122°
2010 May 05, 07:08 36.25809° -75.59156° 30 min 0.00 0.01
122°
2010 May 05, 06:38 36.25813° -75.59164° 30 min 0.01 0.00
31°
2010 May 05, 06:08 36.25810° -75.59167° 30 min 0.01 0.00
302°
2010 May 05, 05:38 36.25809° -75.59164° 30 min 0.01 0.00
332°
2010 May 05, 05:08 36.25806° -75.59162° 30 min 0.01 0.00
90°
2010 May 05, 04:38 36.25806° -75.59164° 30 min 0.01 0.00
44°
2010 May 05, 04:08 36.25804° -75.59167° 30 min 0.01 0.00
332°
2010 May 05, 03:38 36.25800° -75.59164° 30 min 0.01 0.00
297°
2010 May 05, 03:08 36.25798° -75.59160° 30 min 0.01 0.00
313°
2010 May 05, 02:38 36.25797° -75.59158° 30 min 0.01 0.00
90°
2010 May 05, 02:08 36.25797° -75.59160° 30 min 0.01 0.01
302°
2010 May 05, 01:38 36.25794° -75.59154° 30 min 0.01 0.00
180°
2010 May 05, 01:08 36.25795° -75.59154° 30 min 0.01 0.00
292°
2010 May 05, 00:38 36.25794° -75.59151° 30 min 0.01 0.00
302°
2010 May 05, 00:08 36.25793° -75.59149° 30 min 0.01 0.01
283°
2010 May 04, 23:38 36.25792° -75.59143° 30 min 0.01 0.00
2010 May 04, 23:08 36.25791° -75.59143° 30 min 0.01 0.00
2010 May 04, 22:38 36.25791° -75.59143° 30 min 0.01 0.00
180°
2010 May 04, 22:08 36.25792° -75.59143° 30 min 0.01 0.00
2010 May 04, 21:38 36.25791° -75.59143° 30 min 0.01 0.01
180°
2010 May 04, 21:08 36.25796° -75.59143° 30 min 0.01 0.00
302°
2010 May 04, 20:38 36.25795° -75.59141° 30 min 0.01 0.00
180°
2010 May 04, 20:08 36.25796° -75.59141° 30 min 0.01 0.01
2010 May 04, 19:38 36.25789° -75.59141° 30 min 0.02 0.00
136°
2010 May 04, 19:08 36.25791° -75.59143° 30 min 0.01 0.01
122°
2010 May 04, 18:38 36.25793° -75.59148° 30 min 0.01 0.01
258°
2010 May 04, 18:08 36.25794° -75.59141° 30 min 0.01 0.01
130°
2010 May 04, 17:38 36.25797° -75.59145° 30 min 0.01 0.00
270°
2010 May 04, 17:08 36.25797° -75.59141° 30 min 0.01 0.00
238°
2010 May 04, 16:38 36.25798° -75.59138° 30 min 0.01 0.01
104°
2010 May 04, 16:08 36.25800° -75.59148° 30 min 0.01 0.00
110°
2010 May 04, 15:38 36.25801° -75.59151° 30 min 0.01 0.01
122°
2010 May 04, 15:08 36.25805° -75.59158° 30 min 0.01 0.00
147°
2010 May 04, 14:38 36.25807° -75.59160° 30 min 0.01 0.00
152°
2010 May 04, 14:08 36.25810° -75.59162° 30 min 0.01 0.00
180°
2010 May 04, 13:38 36.25811° -75.59162° 30 min 0.01 0.01
47°
2010 May 04, 13:08 36.25808° -75.59167° 30 min 0.01 0.00
238°
2010 May 04, 12:38 36.25809° -75.59164° 30 min 0.01 0.00
2010 May 04, 12:08 36.25806° -75.59164° 30 min 0.01 0.00
2010 May 04, 11:38 36.25804° -75.59164° 30 min 0.01 0.00
180°
2010 May 04, 11:08 36.25805° -75.59164° 30 min 0.01 0.00
180°
2010 May 04, 10:38 36.25806° -75.59164° 30 min 0.01 0.01
319°
2010 May 04, 10:08 36.25801° -75.59160° 30 min 0.01 0.00
180°
2010 May 04, 09:38 36.25803° -75.59160° 30 min 0.01 0.01
315°
2010 May 04, 09:08 36.25800° -75.59156° 30 min 0.01 0.00
180°
2010 May 04, 08:38 36.25800° -75.59156° 30 min 0.01 0.00
2010 May 04, 08:08 36.25800° -75.59156° 30 min 0.01 0.00
112°
2010 May 04, 07:38 36.25800° -75.59158° 30 min 0.01 0.00
180°
2010 May 04, 07:08 36.25801° -75.59158° 30 min 0.01 0.00
133°
2010 May 04, 06:38 36.25803° -75.59160° 30 min 0.01 0.00
180°
2010 May 04, 06:08 36.25805° -75.59160° 30 min 0.01 0.01
164°
2010 May 04, 05:38 36.25811° -75.59162° 30 min 0.01 0.01
156°
2010 May 04, 05:08 36.25816° -75.59164° 30 min 0.01 0.00
302°
2010 May 04, 04:38 36.25814° -75.59162° 30 min 0.01 0.01
204°
2010 May 04, 04:08 36.25819° -75.59160° 30 min 0.01 0.01
112°
2010 May 04, 03:38 36.25821° -75.59167° 30 min 0.01 0.00
302°
2010 May 04, 03:08 36.25820° -75.59164° 30 min 0.01 0.00
2010 May 04, 02:38 36.25820° -75.59164° 30 min 0.01 0.00
31°
2010 May 04, 02:08 36.25817° -75.59167° 30 min 0.01 0.01
199°
2010 May 04, 01:38 36.25822° -75.59164° 30 min 0.01 0.00
2010 May 04, 01:08 36.25820° -75.59164° 30 min 0.01 0.00
180°
2010 May 04, 00:38 36.25822° -75.59164° 30 min 0.01 0.01
2010 May 04, 00:08 36.25817° -75.59164° 30 min 0.01 0.01
198°
2010 May 03, 23:38 36.25823° -75.59162° 30 min 0.01 0.01
254°
2010 May 03, 23:08 36.25826° -75.59149° 30 min 0.01 0.02
49°
2010 May 03, 22:38 36.25816° -75.59164° 30 min 0.01 0.01
297°
2010 May 03, 22:08 36.25812° -75.59156° 30 min 0.00 0.01
294°
2010 May 03, 21:38 36.25809° -75.59148° 30 min 0.00 0.01
302°
2010 May 03, 21:08 36.25807° -75.59143° 30 min 0.01 0.00
316°
2010 May 03, 20:38 36.25805° -75.59141° 30 min 0.01 0.00
248°
2010 May 03, 20:08 36.25806° -75.59138° 30 min 0.01 0.03
119°
2010 May 03, 19:38 36.25817° -75.59164° 30 min 0.01 0.03
262°
2010 May 03, 19:08 36.25821° -75.59135° 30 min 0.01 0.00
2010 May 03, 18:38 36.25819° -75.59135° 30 min 0.01 0.01
74°
2010 May 03, 18:08 36.25816° -75.59148° 30 min 0.00 0.01
153°
2010 May 03, 17:38 36.25825° -75.59154° 30 min 0.01 0.00
63°
2010 May 03, 17:08 36.25823° -75.59158° 30 min 0.01 0.00
90°
2010 May 03, 16:38 36.25823° -75.59160° 30 min 0.01 0.00
2010 May 03, 16:08 36.25822° -75.59160° 30 min 0.01 0.01
2010 May 03, 15:38 36.25817° -75.59160° 30 min 0.00 0.00
180°
2010 May 03, 15:08 36.25821° -75.59160° 30 min 0.01 0.00
58°
2010 May 03, 14:38 36.25820° -75.59162° 30 min 0.01 0.00
31°
2010 May 03, 14:08 36.25817° -75.59164° 30 min 0.01 0.01
58°
2010 May 03, 13:38 36.25814° -75.59169° 30 min 0.01 0.00
270°
2010 May 03, 13:08 36.25814° -75.59167° 30 min 0.01 0.00
2010 May 03, 12:38 36.25814° -75.59167° 30 min 0.01 0.01
2010 May 03, 12:08 36.25810° -75.59167° 30 min 0.01 0.01
321°
2010 May 03, 11:38 36.25806° -75.59162° 30 min 0.01 0.01
2010 May 03, 11:08 36.25800° -75.59162° 30 min 0.01 0.00
208°
2010 May 03, 10:38 36.25804° -75.59160° 30 min 0.01 0.01
280°
2010 May 03, 10:08 36.25803° -75.59151° 30 min 0.01 0.01
246°
2010 May 03, 09:38 36.25806° -75.59143° 30 min 0.01 0.01
226°
2010 May 03, 09:08 36.25812° -75.59135° 30 min 0.01 0.00
270°
2010 May 03, 08:38 36.25812° -75.59130° 30 min 0.01 0.01
40°
2010 May 03, 08:08 36.25806° -75.59137° 30 min 0.01 0.01
245°
2010 May 03, 07:38 36.25809° -75.59128° 30 min 0.01 0.01
180°
2010 May 03, 07:08 36.25813° -75.59128° 30 min 0.01 0.01
180°
2010 May 03, 06:38 36.25817° -75.59128° 30 min 0.01 0.00
90°
2010 May 03, 06:08 36.25817° -75.59130° 30 min 0.01 0.00
270°
2010 May 03, 05:38 36.25817° -75.59128° 30 min 0.01 0.00
180°
2010 May 03, 05:08 36.25820° -75.59128° 30 min 0.01 0.01
107°
2010 May 03, 04:38 36.25822° -75.59137° 30 min 0.01 0.00
158°
2010 May 03, 04:08 36.25825° -75.59138° 30 min 0.01 0.00
180°
2010 May 03, 03:38 36.25827° -75.59138° 30 min 0.01 0.01
130°
2010 May 03, 03:08 36.25830° -75.59143° 30 min 0.01 0.00
122°
2010 May 03, 02:38 36.25832° -75.59145° 30 min 0.01 0.00
2010 May 03, 02:08 36.25830° -75.59145° 30 min 0.01 0.00
2010 May 03, 01:38 36.25830° -75.59145° 30 min 0.01 0.00
238°
2010 May 03, 01:08 36.25832° -75.59143° 30 min 0.01 0.00
270°
2010 May 03, 00:38 36.25832° -75.59141° 30 min 0.01 0.00
307°
2010 May 03, 00:08 36.25829° -75.59137° 30 min 0.01 0.00
282°
2010 May 02, 23:38 36.25829° -75.59132° 30 min 0.01 0.00
321°
2010 May 02, 23:08 36.25826° -75.59130° 30 min 0.01 0.00
329°
2010 May 02, 22:38 36.25823° -75.59128° 30 min 0.01 0.00
39°
2010 May 02, 22:08 36.25821° -75.59130° 30 min 0.01 0.01
344°
2010 May 02, 21:38 36.25814° -75.59128° 30 min 0.01 0.00
58°
2010 May 02, 21:08 36.25813° -75.59130° 30 min 0.01 0.01
16°
2010 May 02, 20:38 36.25807° -75.59132° 30 min 0.01 0.00
2010 May 02, 20:08 36.25807° -75.59132° 30 min 0.01 0.00
2010 May 02, 19:38 36.25805° -75.59132° 30 min 0.01 0.00
270°
2010 May 02, 19:08 36.25805° -75.59130° 30 min 0.01 0.01
90°
2010 May 02, 18:38 36.25805° -75.59137° 30 min 0.01 0.00
122°
2010 May 02, 18:08 36.25806° -75.59138° 30 min 0.01 0.00
180°
2010 May 02, 17:38 36.25809° -75.59138° 30 min 0.01 0.01
78°
2010 May 02, 17:08 36.25808° -75.59145° 30 min 0.00 0.01
330°
2010 May 02, 16:38 36.25801° -75.59141° 30 min 0.01 0.00
58°
2010 May 02, 16:08 36.25800° -75.59143° 30 min 0.01 0.01
19°
2010 May 02, 15:38 36.25795° -75.59145° 30 min 0.01 0.01
226°
2010 May 02, 15:08 36.25800° -75.59138° 30 min 0.01 0.01
60°
2010 May 02, 14:38 36.25796° -75.59148° 30 min 0.01 0.00
90°
2010 May 02, 14:08 36.25796° -75.59151° 30 min 0.01 0.00
58°
2010 May 02, 13:38 36.25795° -75.59154° 30 min 0.01 0.00
122°
2010 May 02, 13:08 36.25796° -75.59156° 30 min 0.01 0.00
2010 May 02, 12:38 36.25793° -75.59156° 30 min 0.01 0.00
287°
2010 May 02, 12:08 36.25792° -75.59151° 30 min 0.01 0.00
329°
2010 May 02, 11:38 36.25789° -75.59149° 30 min 0.01 0.00
202°
2010 May 02, 11:08 36.25792° -75.59148° 30 min 0.01 0.00
238°
2010 May 02, 10:38 36.25793° -75.59145° 30 min 0.01 0.00
270°
2010 May 02, 10:08 36.25793° -75.59143° 30 min 0.01 0.00
270°
2010 May 02, 09:38 36.25793° -75.59138° 30 min 0.01 0.00
213°
2010 May 02, 09:08 36.25795° -75.59137° 30 min 0.01 0.00
270°
2010 May 02, 08:38 36.25795° -75.59135° 30 min 0.01 0.01
227°
2010 May 02, 08:08 36.25798° -75.59130° 30 min 0.01 0.01
180°
2010 May 02, 07:38 36.25804° -75.59130° 30 min 0.01 0.01
344°
2010 May 02, 07:08 36.25797° -75.59128° 30 min 0.02 0.01
196°
2010 May 02, 06:38 36.25801° -75.59126° 30 min 0.01 0.00
180°
2010 May 02, 06:08 36.25805° -75.59126° 30 min 0.01 0.00
248°
2010 May 02, 05:38 36.25806° -75.59124° 30 min 0.01 0.01
180°
2010 May 02, 05:08 36.25810° -75.59124° 30 min 0.01 0.01
180°
2010 May 02, 04:38 36.25817° -75.59124° 30 min 0.01 0.00
149°
2010 May 02, 04:08 36.25820° -75.59126° 30 min 0.01 0.00
152°
2010 May 02, 03:38 36.25822° -75.59128° 30 min 0.01 0.01
119°
2010 May 02, 03:08 36.25825° -75.59135° 30 min 0.01 0.01
156°
2010 May 02, 02:38 36.25829° -75.59137° 30 min 0.01 0.00
110°
2010 May 02, 02:08 36.25830° -75.59141° 30 min 0.01 0.00
107°
2010 May 02, 01:38 36.25832° -75.59145° 30 min 0.01 0.00
90°
2010 May 02, 01:08 36.25832° -75.59149° 30 min 0.01 0.00
149°
2010 May 02, 00:38 36.25835° -75.59151° 30 min 0.01 0.00
44°
2010 May 02, 00:08 36.25833° -75.59154° 30 min 0.01 0.00
253°
2010 May 01, 23:38 36.25834° -75.59149° 30 min 0.01 0.01
47°
2010 May 01, 23:08 36.25830° -75.59154° 30 min 0.01 0.00
90°
2010 May 01, 22:38 36.25830° -75.59156° 30 min 0.01 0.00
2010 May 01, 22:08 36.25829° -75.59156° 30 min 0.01 0.00
292°
2010 May 01, 21:38 36.25829° -75.59154° 30 min 0.01 0.00
258°
2010 May 01, 21:08 36.25829° -75.59149° 30 min 0.01 0.01
321°
2010 May 01, 20:38 36.25821° -75.59141° 30 min 0.01 0.01
333°
2010 May 01, 20:08 36.25811° -75.59135° 30 min 0.01 0.00
2010 May 01, 19:38 36.25808° -75.59135° 30 min 0.01 0.00
180°
2010 May 01, 19:08 36.25809° -75.59135° 30 min 0.01 0.00
2010 May 01, 18:38 36.25807° -75.59135° 30 min 0.01 0.01
2010 May 01, 18:08 36.25803° -75.59135° 30 min 0.01 0.00
127°
2010 May 01, 17:38 36.25805° -75.59138° 30 min 0.01 0.00
256°
2010 May 01, 17:08 36.25806° -75.59135° 30 min 0.01 0.00
2010 May 01, 16:38 36.25804° -75.59135° 30 min 0.01 0.01
77°
2010 May 01, 16:08 36.25803° -75.59141° 30 min 0.01 0.01
324°
2010 May 01, 15:38 36.25798° -75.59137° 30 min 0.01 0.00
28°
2010 May 01, 15:08 36.25796° -75.59138° 30 min 0.01 0.00
2010 May 01, 14:38 36.25796° -75.59138° 30 min 0.01 0.01
53°
2010 May 01, 14:08 36.25792° -75.59145° 30 min 0.01 0.00
270°
2010 May 01, 13:38 36.25792° -75.59143° 30 min 0.01 0.00
2010 May 01, 13:08 36.25792° -75.59143° 30 min 0.01 0.01
58°
2010 May 01, 12:38 36.25790° -75.59148° 30 min 0.01 0.00
238°
2010 May 01, 12:08 36.25791° -75.59145° 30 min 0.01 0.00
270°
2010 May 01, 11:38 36.25791° -75.59143° 30 min 0.01 0.00
238°
2010 May 01, 11:08 36.25792° -75.59141°